This is the latest recevied weather packets stored in our database for station/object N5SRF. If no packets are shown the sender has not sent any weather packets the latest 10 day(s).
| Time | Temp. | Humidity | Pressure | Rain* | Wind** | Luminosity | Snow |
|---|---|---|---|---|---|---|---|
| 1788031961 | 35° C | 51% | 1020.6 hPa | 0 mm | - | 101 W/m² | - |
| 1788031656 | 36.11° C | 49% | 1020.5 hPa | 0 mm | - | 133 W/m² | - |
| 1788031350 | 36.11° C | 49% | 1020.5 hPa | 0 mm | - | 734 W/m² | - |
| 1788031050 | 35.56° C | 49% | 1020.6 hPa | 0 mm | - | 758 W/m² | - |
| 1788030739 | 35.56° C | 52% | 1020.8 hPa | 0 mm | - | 747 W/m² | - |
| 1788030433 | 36.11° C | 51% | 1021.1 hPa | 0 mm | - | 788 W/m² | - |
| 1788030129 | 36.11° C | 51% | 1020.8 hPa | 0 mm | - | 741 W/m² | - |
| 1788029828 | 35.56° C | 51% | 1020.9 hPa | 0 mm | - | 789 W/m² | - |
| 1788029523 | 34.44° C | 57% | 1021.1 hPa | 0 mm | - | 802 W/m² | - |
| 1788029222 | 35° C | 56% | 1021.2 hPa | 0 mm | - | 181 W/m² | - |
| 1788028916 | 35° C | 56% | 1021.1 hPa | 0 mm | - | 455 W/m² | - |
| 1788028610 | 35.56° C | 55% | 1021.4 hPa | 0 mm | - | 184 W/m² | - |
| 1788028305 | 35.56° C | 55% | 1021.2 hPa | 0 mm | - | 189 W/m² | - |
| 1788028001 | 35° C | 57% | 1021.5 hPa | 0 mm | - | 800 W/m² | - |
| 1788027697 | 35° C | 57% | 1021.6 hPa | 0 mm | - | 246 W/m² | - |
| 1788027396 | 35.56° C | 58% | 1021.5 hPa | 0 mm | - | 664 W/m² | - |
| 1788027091 | 36.11° C | 55% | 1021.4 hPa | 0 mm | - | 190 W/m² | - |
| 1788026790 | 35° C | 58% | 1021.5 hPa | 0 mm | - | 797 W/m² | - |
| 1788026486 | 34.44° C | 59% | 1021.6 hPa | 0 mm | - | 824 W/m² | - |
| 1788026186 | 35° C | 58% | 1021.8 hPa | 0 mm | - | 789 W/m² | - |
| 1788025885 | 36.11° C | 57% | 1021.8 hPa | 0 mm | - | 777 W/m² | - |
| 1788025580 | 35.56° C | 58% | 1021.9 hPa | 0 mm | - | 694 W/m² | - |
| 1788025279 | 35.56° C | 58% | 1022.1 hPa | 0 mm | - | 751 W/m² | - |
| 1788024974 | 35° C | 59% | 1022.1 hPa | 0 mm | - | 746 W/m² | - |
| 1788024669 | 33.89° C | 61% | 1022.3 hPa | 0 mm | - | 741 W/m² | - |
* Rain latest hour (hover to see other rain measurements)
** Current wind speed in m/s (hover to see current wind gust speed)